Time;durP1;ratioP1;P1;durP2;ratioP2;P2;SDS_P1;SDS_P2;PMS_P1;PMS_P2;Temp;Humidity;BMP_temperature;BMP_pressure;BME280_temperature;BME280_humidity;BME280_pressure;Samples;Min_cycle;Max_cycle;Signal;HPM_P1;HPM_P2
2022/07/15 00:01:09;;;;;;;7.22;3.03;;;;;;;16.76;99.74;97435.78;5113650;28;20020;-85
2022/07/15 00:03:35;;;;;;;6.00;3.13;;;;;;;16.63;100.00;97440.59;5096602;28;20027;-85
2022/07/15 00:06:00;;;;;;;3.70;2.60;;;;;;;16.57;100.00;97442.97;5097656;27;20053;-85
2022/07/15 00:08:28;;;;;;;4.00;2.20;;;;;;;16.50;100.00;97437.22;5096437;28;20047;-85
2022/07/15 00:10:54;;;;;;;4.43;2.55;;;;;;;16.43;100.00;97438.72;5113960;27;20436;-84
2022/07/15 00:13:19;;;;;;;7.65;2.90;;;;;;;16.39;100.00;97437.31;5102359;28;20076;-85
2022/07/15 00:15:45;;;;;;;7.18;2.60;;;;;;;16.34;100.00;97428.72;5097139;27;20027;-85
2022/07/15 00:18:11;;;;;;;6.75;3.03;;;;;;;16.34;100.00;97444.94;5099618;27;20043;-84
2022/07/15 00:20:38;;;;;;;7.15;2.33;;;;;;;16.23;100.00;97426.13;5101135;28;20415;-85
2022/07/15 00:23:06;;;;;;;5.13;2.83;;;;;;;16.09;100.00;97448.88;5116729;27;20025;-83
2022/07/15 00:25:32;;;;;;;3.88;2.10;;;;;;;16.00;100.00;97438.88;5099640;27;20035;-83
2022/07/15 00:28:05;;;;;;;6.95;2.75;;;;;;;16.02;100.00;97433.38;5099352;27;20031;-84
2022/07/15 00:30:32;;;;;;;3.20;2.25;;;;;;;16.08;100.00;97436.41;5097194;28;20032;-84
2022/07/15 00:32:58;;;;;;;3.63;2.35;;;;;;;16.12;100.00;97434.25;5112993;28;20015;-83
2022/07/15 00:35:24;;;;;;;4.18;2.40;;;;;;;15.97;100.00;97441.84;5095568;28;20046;-84
2022/07/15 00:37:49;;;;;;;5.55;2.78;;;;;;;15.92;100.00;97443.22;5095800;28;20024;-84
2022/07/15 00:40:15;;;;;;;3.67;2.30;;;;;;;15.82;100.00;97432.34;5118289;27;20085;-84
2022/07/15 00:42:43;;;;;;;4.57;2.53;;;;;;;15.91;100.00;97444.19;5095579;28;20043;-83
2022/07/15 00:45:14;;;;;;;6.82;2.97;;;;;;;15.90;100.00;97435.28;5099385;27;20398;-84
2022/07/15 00:47:48;;;;;;;4.28;3.30;;;;;;;15.87;100.00;97442.78;5112774;27;20015;-84
2022/07/15 00:50:14;;;;;;;5.57;2.53;;;;;;;15.80;100.00;97438.88;5112127;28;20493;-83
2022/07/15 00:52:43;;;;;;;3.25;2.72;;;;;;;15.77;100.00;97450.78;5129306;27;20023;-83
2022/07/15 00:55:11;;;;;;;3.97;2.60;;;;;;;15.62;100.00;97435.91;5129654;27;20518;-83
2022/07/15 00:57:43;;;;;;;8.57;2.40;;;;;;;15.62;100.00;97435.91;5112630;28;20410;-84
2022/07/15 01:00:12;;;;;;;6.50;2.40;;;;;;;15.58;100.00;97432.59;5098390;27;20050;-84
2022/07/15 01:02:39;;;;;;;3.05;2.58;;;;;;;15.45;100.00;97425.63;5096931;28;20291;-83
2022/07/15 01:05:06;;;;;;;3.58;2.78;;;;;;;15.44;100.00;97434.72;5114495;27;20471;-83
2022/07/15 01:07:32;;;;;;;5.68;2.53;;;;;;;15.41;100.00;97430.41;5097079;28;20031;-84
2022/07/15 01:09:58;;;;;;;5.03;2.53;;;;;;;15.38;100.00;97421.75;5129300;27;20063;-83
2022/07/15 01:12:25;;;;;;;8.30;2.45;;;;;;;15.35;100.00;97414.75;5112223;28;20046;-84
2022/07/15 01:14:51;;;;;;;3.63;2.65;;;;;;;15.35;100.00;97417.44;5129149;27;20127;-84
2022/07/15 01:17:16;;;;;;;3.35;2.75;;;;;;;15.36;100.00;97413.75;5078383;28;20503;-83
2022/07/15 01:19:42;;;;;;;3.20;2.45;;;;;;;15.38;100.00;97409.09;5075029;28;20066;-84
2022/07/15 01:22:07;;;;;;;3.88;2.40;;;;;;;15.34;100.00;97402.28;5110999;28;20399;-84
2022/07/15 01:24:34;;;;;;;3.35;2.60;;;;;;;15.37;100.00;97410.09;5095242;28;20037;-83
2022/07/15 01:27:00;;;;;;;5.32;2.85;;;;;;;15.46;100.00;97408.47;5094913;28;20057;-84
2022/07/15 01:29:27;;;;;;;4.65;2.70;;;;;;;15.36;100.00;97384.13;5077426;28;20065;-82
2022/07/15 01:31:53;;;;;;;3.67;2.50;;;;;;;15.27;100.00;97401.06;5095211;28;20054;-83
2022/07/15 01:34:19;;;;;;;5.65;2.60;;;;;;;15.50;100.00;97410.81;5077951;28;20483;-84
2022/07/15 01:36:44;;;;;;;3.95;2.40;;;;;;;15.36;100.00;97408.38;5077661;28;20031;-84
2022/07/15 01:39:10;;;;;;;8.10;2.70;;;;;;;15.33;100.00;97408.63;5077557;28;20030;-83
2022/07/15 01:41:35;;;;;;;4.47;2.75;;;;;;;15.34;100.00;97388.78;5093396;28;20164;-83
2022/07/15 01:44:01;;;;;;;3.65;2.70;;;;;;;15.24;100.00;97393.22;5074432;28;20023;-84
2022/07/15 01:46:27;;;;;;;6.30;2.90;;;;;;;15.20;100.00;97392.63;5061779;28;20129;-84
2022/07/15 01:51:37;;;;;;;4.07;2.35;;;;;;;15.08;100.00;97387.38;5087817;28;20042;-84
2022/07/15 01:54:03;;;;;;;6.20;2.60;;;;;;;15.01;100.00;97380.81;5057636;28;20023;-84
2022/07/15 01:56:28;;;;;;;3.75;2.30;;;;;;;15.04;100.00;97389.47;5094620;28;20111;-84
2022/07/15 01:58:54;;;;;;;12.10;2.50;;;;;;;15.06;100.00;97394.75;5057241;28;20165;-84
2022/07/15 02:01:19;;;;;;;3.80;2.67;;;;;;;14.91;100.00;97386.09;5074121;28;20039;-84
2022/07/15 02:03:45;;;;;;;3.20;2.45;;;;;;;14.94;100.00;97390.38;5057331;28;20020;-84
2022/07/15 02:06:11;;;;;;;5.90;2.78;;;;;;;14.90;100.00;97388.91;5083200;28;20103;-84
2022/07/15 02:08:36;;;;;;;4.00;3.05;;;;;;;15.01;100.00;97395.13;5072059;28;20381;-83
2022/07/15 02:11:02;;;;;;;4.80;3.40;;;;;;;15.08;100.00;97395.47;5065841;28;20111;-83
2022/07/15 02:13:27;;;;;;;7.53;2.92;;;;;;;15.12;100.00;97402.31;5073745;28;20051;-84
2022/07/15 02:15:53;;;;;;;4.60;3.05;;;;;;;15.09;100.00;97392.66;5082179;28;20341;-85
2022/07/15 02:18:19;;;;;;;7.68;3.17;;;;;;;15.16;100.00;97401.94;5086354;28;20024;-84
2022/07/15 02:20:46;;;;;;;4.85;2.35;;;;;;;15.12;100.00;97399.63;5058014;28;20471;-83
2022/07/15 02:23:12;;;;;;;10.55;3.40;;;;;;;15.07;100.00;97396.47;5076635;28;20490;-84
2022/07/15 02:25:37;;;;;;;8.73;3.28;;;;;;;15.08;100.00;97403.56;5057394;28;20028;-84
2022/07/15 02:28:05;;;;;;;16.45;3.20;;;;;;;14.99;100.00;97409.69;5085582;28;20022;-84
2022/07/15 02:30:36;;;;;;;9.57;3.22;;;;;;;14.93;100.00;97411.06;5089487;28;20140;-84
2022/07/15 02:33:03;;;;;;;6.15;2.95;;;;;;;14.91;100.00;97404.09;5056769;28;20557;-84
2022/07/15 02:35:29;;;;;;;8.73;4.05;;;;;;;14.82;100.00;97412.91;5104300;28;20028;-83
2022/07/15 02:37:55;;;;;;;6.85;3.65;;;;;;;14.73;100.00;97405.59;5060996;28;20023;-83
2022/07/15 02:40:21;;;;;;;11.02;5.57;;;;;;;14.59;100.00;97412.06;5065123;28;20475;-84
2022/07/15 02:42:49;;;;;;;13.45;5.45;;;;;;;14.51;100.00;97409.16;5053198;28;20044;-82
2022/07/15 02:45:14;;;;;;;16.77;4.57;;;;;;;14.46;100.00;97405.94;5055699;28;20016;-83
2022/07/15 02:47:40;;;;;;;10.98;3.90;;;;;;;14.38;100.00;97413.78;5056672;28;20024;-84
2022/07/15 02:50:06;;;;;;;13.55;3.63;;;;;;;14.28;100.00;97397.47;5091341;28;20016;-83
2022/07/15 02:52:31;;;;;;;6.75;3.55;;;;;;;14.39;100.00;97411.00;5056385;28;20036;-82
2022/07/15 02:54:58;;;;;;;5.75;3.20;;;;;;;14.36;100.00;97416.63;5056241;28;20031;-83
2022/07/15 02:57:24;;;;;;;11.63;3.40;;;;;;;14.39;100.00;97421.75;5089933;28;20024;-83
2022/07/15 02:59:49;;;;;;;5.05;3.30;;;;;;;14.30;100.00;97416.22;5073183;28;20035;-83
2022/07/15 03:02:15;;;;;;;4.78;3.03;;;;;;;14.20;100.00;97394.53;5056503;28;20035;-83
2022/07/15 03:04:40;;;;;;;5.10;3.63;;;;;;;14.23;100.00;97406.91;5056320;28;20016;-83
2022/07/15 03:07:06;;;;;;;8.73;3.58;;;;;;;14.34;100.00;97413.16;5090046;28;20043;-83
2022/07/15 03:09:31;;;;;;;8.30;3.60;;;;;;;14.39;100.00;97410.13;5056223;28;20035;-83
2022/07/15 03:11:57;;;;;;;8.73;3.47;;;;;;;14.34;100.00;97407.78;5073253;28;20059;-83
2022/07/15 03:14:22;;;;;;;6.10;3.33;;;;;;;14.34;100.00;97406.94;5089744;28;20019;-83
2022/07/15 03:16:48;;;;;;;9.27;3.88;;;;;;;14.31;100.00;97399.94;5072602;28;20021;-83
2022/07/15 03:19:13;;;;;;;14.43;3.85;;;;;;;14.36;100.00;97400.47;5055913;28;20027;-83
2022/07/15 03:21:39;;;;;;;9.73;3.42;;;;;;;14.29;100.00;97385.75;5073366;28;20491;-84
2022/07/15 03:24:07;;;;;;;5.45;3.47;;;;;;;14.36;100.00;97384.31;5072720;28;20020;-83
2022/07/15 03:26:33;;;;;;;6.85;3.10;;;;;;;14.36;100.00;97381.63;5073575;28;20020;-83
2022/07/15 03:29:00;;;;;;;7.50;3.42;;;;;;;14.37;100.00;97380.63;5072883;28;20166;-82
2022/07/15 03:31:26;;;;;;;9.77;3.85;;;;;;;14.38;100.00;97382.34;5073491;28;20404;-83
2022/07/15 03:33:53;;;;;;;5.18;3.17;;;;;;;14.36;100.00;97388.84;5055889;28;20032;-82
2022/07/15 03:36:18;;;;;;;4.03;2.95;;;;;;;14.46;100.00;97390.66;5064860;28;20518;-82
2022/07/15 03:38:44;;;;;;;19.30;3.10;;;;;;;14.66;100.00;97389.06;5073010;28;20064;-82
2022/07/15 03:41:09;;;;;;;7.78;3.80;;;;;;;14.69;100.00;97396.03;5097750;27;20039;-82
2022/07/15 03:43:38;;;;;;;7.28;3.38;;;;;;;14.68;100.00;97384.41;5129057;28;20371;-84
2022/07/15 03:46:04;;;;;;;10.52;3.83;;;;;;;14.77;100.00;97382.78;5100525;27;20113;-83
2022/07/15 03:48:29;;;;;;;11.00;4.03;;;;;;;14.83;100.00;97387.69;5131651;27;20058;-83
2022/07/15 03:50:55;;;;;;;7.85;4.30;;;;;;;14.95;100.00;97387.53;5117782;27;20023;-85
2022/07/15 03:53:20;;;;;;;13.70;4.40;;;;;;;15.07;100.00;97391.09;5099596;27;20023;-83
2022/07/15 03:55:46;;;;;;;7.95;4.43;;;;;;;15.14;100.00;97394.97;5117276;27;20031;-84
2022/07/15 03:58:11;;;;;;;9.20;3.80;;;;;;;15.17;100.00;97394.72;5101481;27;20062;-84
2022/07/15 04:00:37;;;;;;;9.35;3.67;;;;;;;15.24;100.00;97389.66;5100847;27;20023;-85
2022/07/15 04:03:02;;;;;;;13.35;3.63;;;;;;;15.16;100.00;97388.47;5117629;27;20023;-84
2022/07/15 04:05:28;;;;;;;6.45;3.75;;;;;;;15.12;100.00;97388.84;5116569;27;20019;-84
2022/07/15 04:07:53;;;;;;;12.52;5.05;;;;;;;15.14;100.00;97386.88;5099568;27;20027;-83
2022/07/15 04:10:19;;;;;;;11.45;5.25;;;;;;;15.18;100.00;97393.75;5116576;27;20023;-82
2022/07/15 04:12:45;;;;;;;15.45;5.18;;;;;;;15.25;100.00;97403.03;5117091;27;20023;-83
2022/07/15 04:15:10;;;;;;;10.65;5.15;;;;;;;15.32;100.00;97401.53;5100817;27;20099;-84
2022/07/15 04:17:36;;;;;;;8.40;5.07;;;;;;;15.26;100.00;97396.63;5105079;27;20103;-78
2022/07/15 04:20:02;;;;;;;9.85;5.20;;;;;;;15.30;100.00;97392.72;5143705;27;20023;-85
2022/07/15 04:22:28;;;;;;;8.10;4.80;;;;;;;15.45;100.00;97396.81;5110110;27;20030;-83
2022/07/15 04:24:53;;;;;;;8.82;4.38;;;;;;;15.53;100.00;97399.78;5133753;27;20023;-83
2022/07/15 04:27:19;;;;;;;9.57;4.80;;;;;;;15.66;100.00;97399.56;5144376;27;20030;-83
2022/07/15 04:29:44;;;;;;;10.48;4.60;;;;;;;15.77;100.00;97406.75;5133752;27;20031;-83
2022/07/15 04:32:10;;;;;;;13.45;5.32;;;;;;;15.82;100.00;97393.72;5134208;27;20049;-83
2022/07/15 04:34:36;;;;;;;10.98;4.32;;;;;;;15.98;100.00;97391.44;5105701;27;20030;-83
2022/07/15 04:37:02;;;;;;;11.23;4.32;;;;;;;16.05;100.00;97398.03;5099452;27;20025;-82
2022/07/15 04:39:27;;;;;;;11.10;4.47;;;;;;;16.09;100.00;97391.34;5154344;27;20053;-84
2022/07/15 04:41:53;;;;;;;9.25;4.32;;;;;;;16.31;100.00;97399.31;5114918;27;20067;-85
2022/07/15 04:44:18;;;;;;;8.90;4.30;;;;;;;16.45;100.00;97406.22;5123339;27;20430;-85
2022/07/15 04:46:44;;;;;;;18.83;3.83;;;;;;;16.61;100.00;97401.22;5101824;27;20328;-85
2022/07/15 04:51:54;;;;;;;15.30;5.10;;;;;;;16.94;100.00;97400.91;5122103;27;20065;-83
2022/07/15 04:54:19;;;;;;;12.15;3.90;;;;;;;17.06;98.94;97397.09;5122271;27;20063;-84
2022/07/15 04:56:45;;;;;;;10.55;4.50;;;;;;;17.22;97.68;97397.41;5099576;28;20020;-82
2022/07/15 04:59:10;;;;;;;12.02;4.45;;;;;;;17.49;95.61;97399.44;5126763;27;20027;-84
2022/07/15 05:01:36;;;;;;;17.92;4.22;;;;;;;17.83;92.83;97406.16;5111234;27;20023;-83
2022/07/15 05:04:01;;;;;;;13.75;4.60;;;;;;;18.51;88.67;97396.09;5107902;27;20045;-83
2022/07/15 05:06:27;;;;;;;13.30;4.53;;;;;;;20.27;80.64;97391.94;5087547;28;20019;-84
2022/07/15 05:08:53;;;;;;;13.23;3.80;;;;;;;22.61;69.89;97384.44;5096726;28;20036;-84
2022/07/15 05:11:18;;;;;;;8.93;3.90;;;;;;;24.06;61.18;97388.31;5146912;27;20027;-84
2022/07/15 05:13:44;;;;;;;7.88;4.60;;;;;;;24.70;58.72;97373.25;5101175;27;20126;-85
2022/07/15 05:16:10;;;;;;;10.98;4.60;;;;;;;23.91;59.08;97385.53;5115664;27;20460;-83
2022/07/15 05:18:36;;;;;;;12.65;5.07;;;;;;;24.53;57.16;97372.56;5108220;28;20039;-84
2022/07/15 05:21:02;;;;;;;7.75;4.25;;;;;;;25.01;56.11;97370.38;5108053;28;20055;-86
2022/07/15 05:23:28;;;;;;;7.40;4.50;;;;;;;24.70;55.67;97365.03;5106774;27;20026;-86
2022/07/15 05:25:54;;;;;;;16.73;4.72;;;;;;;24.47;56.97;97377.91;5117521;27;20023;-85
2022/07/15 05:28:19;;;;;;;8.70;3.30;;;;;;;25.59;53.52;97366.72;5095274;28;20486;-83
2022/07/15 05:30:45;;;;;;;10.73;5.25;;;;;;;27.13;48.42;97354.78;5103797;28;20410;-83
2022/07/15 05:33:10;;;;;;;10.98;4.82;;;;;;;28.66;45.31;97336.56;5121160;27;20055;-84
2022/07/15 05:35:36;;;;;;;11.20;4.60;;;;;;;28.84;43.67;97352.41;5099369;28;20031;-84
2022/07/15 05:38:02;;;;;;;16.77;4.45;;;;;;;29.75;41.42;97344.94;5119788;27;20026;-85
2022/07/15 05:40:29;;;;;;;8.88;3.38;;;;;;;29.16;42.61;97348.75;5100482;28;20023;-84
2022/07/15 05:42:54;;;;;;;11.15;5.55;;;;;;;30.45;40.88;97350.25;5097526;27;20375;-85
2022/07/15 05:45:20;;;;;;;15.45;6.00;;;;;;;31.38;39.20;97345.47;5102238;28;20023;-85
2022/07/15 05:47:49;;;;;;;10.15;4.05;;;;;;;32.59;37.50;97342.53;5104792;28;20038;-84
2022/07/15 05:50:38;;;;;;;7.43;3.33;;;;;;;33.64;35.35;97335.00;5109103;27;20023;-85
2022/07/15 05:53:03;;;;;;;8.85;4.40;;;;;;;33.35;35.39;97331.31;5115915;27;20023;-84
2022/07/15 05:55:29;;;;;;;20.88;4.93;;;;;;;33.28;35.27;97340.88;5115669;27;20106;-85
2022/07/15 05:57:55;;;;;;;24.15;3.70;;;;;;;33.25;34.74;97331.91;5097129;28;20032;-84
2022/07/15 06:00:21;;;;;;;6.78;3.42;;;;;;;34.11;33.44;97333.78;5104213;28;20055;-85
2022/07/15 06:02:46;;;;;;;10.05;4.75;;;;;;;32.26;34.71;97325.56;5120408;27;20100;-84
2022/07/15 06:05:12;;;;;;;6.50;2.92;;;;;;;32.56;34.06;97332.78;5095055;28;20114;-85
2022/07/15 06:07:38;;;;;;;8.48;4.05;;;;;;;32.47;34.39;97330.56;5110358;27;20023;-85
2022/07/15 06:10:05;;;;;;;17.73;5.00;;;;;;;33.48;32.90;97331.03;5103835;28;20032;-85
2022/07/15 06:12:30;;;;;;;8.88;3.58;;;;;;;32.77;33.20;97317.47;5101565;27;20041;-85
2022/07/15 06:14:56;;;;;;;3.65;2.75;;;;;;;33.46;32.39;97319.34;5114725;27;20034;-85
2022/07/15 06:17:21;;;;;;;7.97;3.03;;;;;;;33.96;31.91;97321.50;5114504;27;20027;-83
2022/07/15 06:19:47;;;;;;;36.72;24.40;;;;;;;33.04;33.14;97323.38;5123417;27;20118;-84
2022/07/15 06:22:13;;;;;;;7.68;3.58;;;;;;;33.87;32.25;97326.59;5114642;27;20034;-83
2022/07/15 06:24:38;;;;;;;10.02;4.38;;;;;;;34.21;32.29;97321.97;5099120;28;20491;-84
2022/07/15 06:27:04;;;;;;;9.93;3.20;;;;;;;34.76;31.67;97327.72;5121673;27;20088;-84
2022/07/15 06:29:30;;;;;;;15.15;3.78;;;;;;;35.79;30.24;97315.84;5123372;27;20023;-84
2022/07/15 06:32:21;;;;;;;7.00;3.85;;;;;;;36.48;28.86;97313.25;5096793;28;20027;-85
2022/07/15 06:34:59;;;;;;;14.05;3.55;;;;;;;35.69;29.64;97315.69;5107341;28;20042;-85
2022/07/15 06:37:25;;;;;;;15.85;3.38;;;;;;;37.06;28.09;97306.78;5094344;28;20073;-85
2022/07/15 06:39:53;;;;;;;15.45;3.53;;;;;;;37.51;27.34;97309.84;5102433;28;20076;-85
2022/07/15 06:42:21;;;;;;;7.63;3.38;;;;;;;36.62;28.02;97293.03;5105854;28;20051;-84
2022/07/15 06:44:54;;;;;;;11.35;2.95;;;;;;;37.18;27.77;97313.81;5116287;28;20129;-84
2022/07/15 06:47:19;;;;;;;4.93;2.63;;;;;;;37.76;26.84;97295.97;5109228;28;20035;-85
2022/07/15 06:49:45;;;;;;;4.32;2.58;;;;;;;38.68;25.43;97289.47;5099513;28;20040;-85
2022/07/15 06:52:10;;;;;;;8.57;2.67;;;;;;;39.49;24.73;97295.81;5094025;28;20054;-83
2022/07/15 06:54:36;;;;;;;6.18;2.80;;;;;;;40.35;23.64;97291.75;5094157;28;20066;-85
2022/07/15 06:57:02;;;;;;;5.30;3.47;;;;;;;40.60;23.90;97283.16;5103700;28;20035;-83
2022/07/15 06:59:27;;;;;;;17.88;6.07;;;;;;;40.37;23.63;97290.31;5101851;28;20035;-85
2022/07/15 07:01:53;;;;;;;5.57;3.38;;;;;;;39.61;24.12;97292.66;5101524;28;20027;-83
2022/07/15 07:04:19;;;;;;;9.60;3.13;;;;;;;39.09;23.80;97286.66;5093893;28;20036;-84
2022/07/15 07:06:45;;;;;;;9.15;3.53;;;;;;;39.30;24.16;97291.09;5085408;28;20031;-84
2022/07/15 07:09:11;;;;;;;4.35;3.22;;;;;;;39.06;24.22;97278.81;5129457;28;20104;-84
2022/07/15 07:11:38;;;;;;;11.55;2.40;;;;;;;39.44;23.80;97300.59;5108882;28;20023;-84
2022/07/15 07:14:04;;;;;;;11.95;2.90;;;;;;;38.66;24.80;97290.88;5111337;28;20031;-84
2022/07/15 07:16:30;;;;;;;13.80;3.53;;;;;;;37.30;26.11;97280.97;5101878;28;20038;-83
2022/07/15 07:18:56;;;;;;;13.73;4.10;;;;;;;37.85;25.68;97288.75;5110326;28;20027;-83
2022/07/15 07:21:22;;;;;;;11.60;4.32;;;;;;;37.21;26.74;97285.38;5122154;27;20034;-83
2022/07/15 07:23:48;;;;;;;7.45;2.60;;;;;;;37.75;26.05;97285.91;5115030;28;20391;-83
2022/07/15 07:26:14;;;;;;;11.65;3.88;;;;;;;38.11;25.76;97278.50;5097199;28;20068;-83
2022/07/15 07:28:40;;;;;;;7.82;3.67;;;;;;;37.30;25.88;97274.53;5094387;27;20038;-83
2022/07/15 07:31:07;;;;;;;7.10;2.20;;;;;;;37.96;25.04;97268.13;5109029;28;20032;-82
2022/07/15 07:33:33;;;;;;;6.53;2.63;;;;;;;39.84;23.45;97275.19;5084649;27;20402;-83
2022/07/15 07:35:59;;;;;;;7.45;3.40;;;;;;;40.30;23.64;97280.56;5117708;27;20038;-83
2022/07/15 07:38:24;;;;;;;19.77;4.65;;;;;;;40.62;23.23;97272.47;5117132;27;20031;-83
2022/07/15 07:40:50;;;;;;;9.38;2.67;;;;;;;40.98;23.10;97273.84;5111660;28;20023;-83
2022/07/15 07:43:18;;;;;;;12.18;4.25;;;;;;;41.76;22.42;97269.88;5112316;28;20089;-83
2022/07/15 07:45:45;;;;;;;7.38;3.50;;;;;;;41.39;22.74;97285.50;5119235;27;20562;-83
2022/07/15 07:48:10;;;;;;;7.15;2.95;;;;;;;39.61;24.37;97275.84;5100722;27;20023;-84
2022/07/15 07:50:36;;;;;;;7.65;2.38;;;;;;;37.79;26.07;97277.81;5115974;27;20058;-84
2022/07/15 07:53:01;;;;;;;4.13;2.85;;;;;;;38.15;26.08;97276.00;5104705;27;20110;-83
2022/07/15 07:55:27;;;;;;;4.85;2.63;;;;;;;39.31;25.31;97273.19;5083815;28;20487;-83
2022/07/15 07:57:54;;;;;;;3.08;2.45;;;;;;;39.37;25.31;97284.09;5131531;27;20030;-83
2022/07/15 08:00:21;;;;;;;2.60;2.30;;;;;;;40.43;24.51;97277.09;5083357;27;20031;-83
2022/07/15 08:02:47;;;;;;;8.25;2.67;;;;;;;39.21;25.36;97275.97;5081076;28;20053;-83
2022/07/15 08:05:14;;;;;;;3.78;2.30;;;;;;;38.25;25.23;97268.44;5079967;28;20027;-82
2022/07/15 08:07:41;;;;;;;5.80;2.65;;;;;;;38.39;25.73;97269.59;5088232;28;20023;-83
2022/07/15 08:10:07;;;;;;;4.53;2.40;;;;;;;39.28;25.59;97277.41;5099645;28;20015;-83
2022/07/15 08:12:33;;;;;;;4.03;2.00;;;;;;;40.36;24.08;97265.38;5110156;27;20542;-82
2022/07/15 08:14:59;;;;;;;6.47;2.00;;;;;;;40.92;23.43;97272.19;5128434;27;20102;-81
2022/07/15 08:17:25;;;;;;;4.63;2.08;;;;;;;41.40;23.26;97259.09;5116086;27;20043;-81
2022/07/15 08:19:51;;;;;;;3.45;2.10;;;;;;;43.05;22.04;97273.81;5124474;27;20421;-80
2022/07/15 08:22:16;;;;;;;9.77;2.70;;;;;;;42.60;22.34;97261.38;5124848;27;20518;-83
2022/07/15 08:24:42;;;;;;;3.97;2.10;;;;;;;43.38;22.09;97271.78;5121651;27;20098;-83
2022/07/15 08:27:08;;;;;;;6.57;2.10;;;;;;;43.03;21.88;97267.66;5098686;28;20567;-83
2022/07/15 08:29:34;;;;;;;7.10;2.92;;;;;;;41.72;23.89;97269.63;5101672;28;20437;-83
2022/07/15 08:32:00;;;;;;;4.45;2.63;;;;;;;39.89;24.29;97263.97;5123746;27;20026;-83
2022/07/15 08:34:26;;;;;;;13.35;2.97;;;;;;;41.01;23.71;97256.41;5102904;27;20028;-82
2022/07/15 08:36:51;;;;;;;5.25;3.88;;;;;;;40.91;24.28;97256.50;5080610;28;20032;-83
2022/07/15 08:39:17;;;;;;;4.50;2.38;;;;;;;42.24;22.66;97260.22;5099122;28;20027;-82
2022/07/15 08:41:43;;;;;;;4.90;3.30;;;;;;;41.46;22.87;97252.28;5104182;28;20075;-82
2022/07/15 08:44:08;;;;;;;3.95;2.40;;;;;;;40.58;23.70;97241.34;5090193;28;20028;-82
2022/07/15 08:46:35;;;;;;;5.38;2.40;;;;;;;41.81;22.38;97247.34;5126929;27;20035;-83
2022/07/15 08:49:13;;;;;;;8.10;2.20;;;;;;;41.79;21.03;97235.56;5093503;28;20024;-82
2022/07/15 08:51:43;;;;;;;3.00;2.45;;;;;;;41.54;21.74;97236.72;5111186;27;20024;-82
2022/07/15 08:54:08;;;;;;;3.72;2.67;;;;;;;41.89;20.99;97239.06;5092314;28;20038;-82
2022/07/15 08:56:35;;;;;;;5.05;2.08;;;;;;;42.57;19.82;97222.56;5089910;28;20403;-83
2022/07/15 08:59:01;;;;;;;4.60;1.90;;;;;;;42.62;18.60;97218.81;5095488;28;20070;-83
2022/07/15 09:01:29;;;;;;;2.50;2.30;;;;;;;42.25;19.34;97210.41;5115454;27;20028;-83
2022/07/15 09:03:54;;;;;;;1.70;1.60;;;;;;;40.70;20.54;97218.53;5100646;27;20131;-83
2022/07/15 09:06:41;;;;;;;2.80;1.98;;;;;;;41.18;19.42;97218.59;5110859;28;20028;-82
2022/07/15 09:09:30;;;;;;;11.35;3.88;;;;;;;42.27;19.37;97213.78;5083957;28;20126;-83
2022/07/15 09:12:16;;;;;;;7.93;1.67;;;;;;;43.35;18.35;97215.22;5118393;27;20477;-83
2022/07/15 09:14:44;;;;;;;2.45;1.58;;;;;;;42.82;18.46;97200.72;5095333;27;20047;-82
2022/07/15 09:17:09;;;;;;;6.30;2.55;;;;;;;43.24;18.62;97210.91;5078452;28;20030;-83
2022/07/15 09:19:57;;;;;;;2.40;1.67;;;;;;;43.58;18.31;97208.53;5100313;28;20114;-84
2022/07/15 09:22:23;;;;;;;7.15;2.13;;;;;;;44.07;17.97;97217.00;5099340;28;20030;-84
2022/07/15 09:25:10;;;;;;;4.13;3.60;;;;;;;44.50;17.64;97213.72;5092149;27;20476;-84
2022/07/15 09:27:38;;;;;;;4.90;1.60;;;;;;;41.33;19.80;97201.56;5088882;28;20053;-84
2022/07/15 09:36:20;;;;;;;2.95;2.25;;;;;;;43.13;18.99;97218.75;5112443;28;20107;-83
2022/07/15 09:38:58;;;;;;;5.85;2.60;;;;;;;42.08;20.12;97206.16;5087770;28;20460;-82
2022/07/15 09:41:41;;;;;;;5.88;1.77;;;;;;;43.06;19.31;97210.72;5081786;28;20135;-83
2022/07/15 09:44:14;;;;;;;2.47;2.03;;;;;;;43.63;18.64;97205.59;5088644;27;20051;-83
2022/07/15 09:46:52;;;;;;;7.30;2.67;;;;;;;44.19;18.11;97211.66;5092253;27;20038;-83
2022/07/15 09:49:22;;;;;;;2.88;2.38;;;;;;;44.06;18.15;97209.69;5077655;28;20063;-84
2022/07/15 09:51:55;;;;;;;2.13;1.80;;;;;;;43.49;19.01;97210.41;5107665;28;20111;-84
2022/07/15 09:54:26;;;;;;;2.40;1.55;;;;;;;44.28;18.11;97213.72;5097426;28;20034;-84
2022/07/15 09:56:52;;;;;;;2.40;2.20;;;;;;;44.65;18.02;97190.78;5100431;28;20081;-84
2022/07/15 09:59:19;;;;;;;2.35;1.80;;;;;;;44.45;17.98;97196.94;5088282;28;20372;-84
2022/07/15 10:01:47;;;;;;;2.53;2.10;;;;;;;45.13;17.70;97200.19;5088470;27;20049;-84
2022/07/15 10:04:20;;;;;;;7.10;2.60;;;;;;;44.03;18.21;97199.03;5086744;28;20059;-84
2022/07/15 10:06:46;;;;;;;;;;;;;;;44.01;18.39;97200.53;5098404;28;20122;-84
2022/07/15 10:09:12;;;;;;;3.33;2.53;;;;;;;44.70;18.24;97196.31;5096748;27;19921;-84
2022/07/15 10:11:44;;;;;;;4.40;1.90;;;;;;;45.03;17.57;97191.19;5089686;28;20469;-84
2022/07/15 10:14:22;;;;;;;2.33;2.13;;;;;;;45.83;17.04;97207.78;5084169;28;20027;-83
2022/07/15 10:17:06;;;;;;;4.38;2.60;;;;;;;45.48;17.66;97200.34;5077516;28;20034;-84
2022/07/15 10:20:09;;;;;;;3.90;2.42;;;;;;;44.49;17.50;97179.00;5127679;27;20036;-84
2022/07/15 10:22:57;;;;;;;2.47;2.13;;;;;;;45.64;16.18;97176.94;5114900;27;20023;-84
2022/07/15 10:25:39;;;;;;;3.38;2.05;;;;;;;45.36;16.62;97174.69;5085407;28;20088;-84
2022/07/15 10:28:14;;;;;;;2.10;1.90;;;;;;;43.65;17.57;97181.59;5105366;27;20078;-84
2022/07/15 10:30:42;;;;;;;2.05;1.90;;;;;;;43.79;17.58;97183.56;5102876;28;20114;-84
2022/07/15 10:33:16;;;;;;;3.33;1.88;;;;;;;42.91;18.05;97174.38;5099874;28;20027;-84
2022/07/15 10:36:03;;;;;;;2.25;1.75;;;;;;;44.52;16.68;97169.91;5125478;27;20072;-84
2022/07/15 10:38:39;;;;;;;2.58;2.00;;;;;;;44.66;16.94;97165.03;5085857;28;20034;-84
2022/07/15 10:41:14;;;;;;;8.95;2.40;;;;;;;44.63;17.26;97162.03;5093730;27;20031;-84
2022/07/15 10:43:46;;;;;;;8.10;2.30;;;;;;;45.22;16.49;97153.03;5105392;27;20026;-84
2022/07/15 10:46:29;;;;;;;2.22;1.98;;;;;;;46.36;16.30;97155.72;5123877;27;20491;-84
2022/07/15 10:48:57;;;;;;;3.25;2.90;;;;;;;44.88;17.07;97164.16;5121674;28;20410;-85
2022/07/15 10:51:35;;;;;;;10.13;2.80;;;;;;;43.66;17.30;97155.03;5156085;27;20037;-84
2022/07/15 10:54:02;;;;;;;10.75;2.15;;;;;;;43.61;17.88;97162.78;5124192;27;20019;-84
2022/07/15 10:56:30;;;;;;;5.90;2.10;;;;;;;42.91;18.20;97154.66;5106483;28;20118;-84
2022/07/15 10:59:16;;;;;;;7.30;2.78;;;;;;;43.05;17.15;97138.63;5158139;27;20019;-84
2022/07/15 11:01:47;;;;;;;5.20;1.95;;;;;;;42.85;17.88;97144.63;5106071;27;20033;-84
2022/07/15 11:04:18;;;;;;;2.75;2.50;;;;;;;42.96;17.04;97145.25;5104436;27;20035;-84
2022/07/15 11:07:02;;;;;;;4.40;2.25;;;;;;;45.04;14.69;97131.50;5112589;27;20039;-84
2022/07/15 11:09:47;;;;;;;3.58;1.80;;;;;;;44.05;15.53;97129.06;5163960;27;20026;-84
2022/07/15 11:12:14;;;;;;;2.10;1.90;;;;;;;45.03;15.21;97129.84;5124190;27;20039;-85
2022/07/15 11:15:12;;;;;;;4.15;2.03;;;;;;;45.01;16.00;97137.00;5132308;27;20027;-85
2022/07/15 11:17:42;;;;;;;5.57;1.90;;;;;;;43.91;16.57;97133.91;5118152;27;20030;-86
2022/07/15 11:20:15;;;;;;;3.65;1.90;;;;;;;43.73;16.69;97137.69;5111232;27;20045;-86
2022/07/15 11:22:43;;;;;;;5.15;2.42;;;;;;;43.72;16.80;97131.22;5101559;27;20119;-86
2022/07/15 11:25:30;;;;;;;6.70;2.20;;;;;;;43.98;17.04;97128.66;5115788;27;20109;-85
2022/07/15 11:28:19;;;;;;;3.92;1.83;;;;;;;42.31;18.14;97127.59;5114807;27;20485;-84
2022/07/15 11:30:53;;;;;;;4.70;1.88;;;;;;;42.73;17.57;97129.41;5130753;27;20038;-84
2022/07/15 11:33:25;;;;;;;1.70;1.60;;;;;;;43.57;17.71;97134.41;5136495;27;20027;-85
2022/07/15 11:35:54;;;;;;;3.63;1.80;;;;;;;42.99;17.61;97122.97;5113597;27;20083;-84
2022/07/15 11:38:24;;;;;;;11.45;2.40;;;;;;;41.93;18.81;97122.03;5111215;27;20070;-84
2022/07/15 11:46:24;;;;;;;5.15;4.07;;;;;;;42.83;18.15;97124.38;5136902;27;20138;-84
2022/07/15 11:48:51;;;;;;;8.70;3.67;;;;;;;42.80;18.24;97125.00;5125837;27;20022;-84
2022/07/15 11:51:16;;;;;;;5.95;4.05;;;;;;;43.51;18.18;97118.75;5114120;27;20026;-85